Skip to main content

NOAA/GLERL Met Station at Michigan City, IN

Previous 3 Hours (2 minute increments)
See also Previous 5 Days (top of hour)
Jump down to Data
Switch to [English][Metric]
Zoom: Click and drag, Pan: shift-click and drag, Unzoom: double-click, Unzoom All




See also 1-day windrose plot


NOAA/GLERL Met Station at Michigan City, IN

Previous 3 Hours (2 minute increments)
See also Previous 5 Days (top of hour only)
Jump up to Graphs
Switch to [English][Metric]
                  Wind  Wind  Wind   Air   Dew   Rel     Sta   PAR
                   Spd   Gst   Dir  Temp    Pt   Hum    Pres uE/m2/
YYYY-MM-DD   CST   kts   kts   deg     F     F     %   in Hg   sec
2017-12-15 13:22  22.9  25.9   260  30.0  16.4  56.6    0.00     0
2017-12-15 13:20  21.0  22.7   258  30.0  16.9  57.7    0.00     0
2017-12-15 13:18  24.7  27.0   254  29.7  15.3  54.8    0.00     0
2017-12-15 13:16  23.5  27.4   251  29.8  15.8  55.5    0.00     0
2017-12-15 13:14  23.1  26.4   259  30.2  16.1  55.4    0.00     0
2017-12-15 13:12  24.5  26.6   264  30.0  15.3  54.0    0.00     0
2017-12-15 13:10  24.3  28.8   269  30.2  16.3  55.9    0.00     0
2017-12-15 13:08  19.8  23.3   267  29.7  15.9  56.1    0.00     0
2017-12-15 13:06  21.8  24.5   263  29.8  15.7  55.2    0.00     0
2017-12-15 13:04  22.4  23.9   269  29.7  15.4  54.9    0.00     0
2017-12-15 13:02  23.3  25.5   263  29.3  14.4  53.5    0.00     0
2017-12-15 13:00  25.1  28.6   261  29.7  15.5  55.1    0.00     0
2017-12-15 12:58  22.2  23.7   265  29.5  15.4  55.4    0.00     0
2017-12-15 12:56  20.4  22.0   259  29.1  15.3  55.9    0.00     0
2017-12-15 12:54  22.7  26.0   259  29.5  15.8  56.4    0.00     0
2017-12-15 12:52  23.5  25.1   262  29.5  15.1  54.7    0.00     0
2017-12-15 12:50  20.8  23.5   272  29.5  15.6  55.8    0.00     0
2017-12-15 12:48  21.4  23.1   274  29.1  15.2  55.8    0.00     0
2017-12-15 12:46  23.9  27.4   264  29.1  13.7  52.2    0.00     0
2017-12-15 12:44  24.7  26.6   275  29.8  15.3  54.3    0.00     0
2017-12-15 12:42  25.1  27.4   281  29.8  15.6  55.0    0.00     0
2017-12-15 12:40  27.6  31.7   265  29.3  14.7  54.2    0.00     0
2017-12-15 12:38  24.9  28.2   272  29.3  14.6  54.0    0.00     0
2017-12-15 12:36  25.9  29.7   273  29.5  15.1  54.7    0.00     0
2017-12-15 12:34  26.8  29.7   267  29.3  15.8  56.7    0.00     0
2017-12-15 12:32  25.1  28.6   269  29.3  15.1  55.0    0.00     0
2017-12-15 12:30  26.0  29.5   267  29.1  14.8  54.7    0.00     0
2017-12-15 12:28  25.1  28.2   265  29.3  15.8  56.8    0.00     0
2017-12-15 12:26  24.9  29.4   269  29.1  15.7  56.9    0.00     0
2017-12-15 12:24  25.1  29.2   267  29.1  14.9  55.1    0.00     0
2017-12-15 12:22  24.9  29.7   268  29.1  15.8  57.2    0.00     0
2017-12-15 12:20  28.8  30.7   262  28.9  15.0  55.7    0.00     0
2017-12-15 12:18  27.2  30.3   256  28.8  14.8  55.5    0.00     0
2017-12-15 12:16  29.2  31.3   261  28.9  15.6  57.2    0.00     0
2017-12-15 12:14  24.1  28.6   262  29.1  17.5  61.6    0.00     0
2017-12-15 12:12  27.4  30.9   254  28.6  15.8  58.4    0.00     0
2017-12-15 12:10  26.4  29.9   258  28.4  15.1  57.2    0.00     0
2017-12-15 12:08  29.2  30.9   252  28.4  14.7  56.2    0.00     0
2017-12-15 12:06  23.9  28.4   257  28.2  15.1  57.5    0.00     0
2017-12-15 12:04  27.4  29.2   265  28.6  15.4  57.5    0.00     0
2017-12-15 12:02  25.3  28.8   263  28.6  15.8  58.4    0.00     0
2017-12-15 12:00  26.6  29.2   264  28.4  15.2  57.3    0.00     0
2017-12-15 11:58  25.5  26.8   257  28.2  15.8  59.2    0.00     0
2017-12-15 11:56  23.7  28.0   259  28.2  15.4  58.4    0.00     0
2017-12-15 11:54  27.4  30.3   267  28.2  14.2  55.4    0.00     0
2017-12-15 11:52  26.8  31.3   262  28.4  15.3  57.6    0.00     0
2017-12-15 11:50  26.2  28.6   259  28.0  14.3  55.9    0.00     0
2017-12-15 11:48  25.7  28.0   254  28.0  15.5  59.1    0.00     0
2017-12-15 11:46  24.7  28.8   249  27.9  15.9  60.4    0.00     0
2017-12-15 11:44  27.4  30.5   246  27.7  14.3  56.8    0.00     0
2017-12-15 11:42  27.8  32.7   253  27.9  14.9  58.0    0.00     0
2017-12-15 11:40  26.8  30.5   253  28.0  15.5  58.9    0.00     0
2017-12-15 11:38  24.1  26.2   246  28.0  16.6  61.9    0.00     0
2017-12-15 11:36  26.0  29.2   254  28.0  16.7  62.2    0.00     0
2017-12-15 11:34  24.5  27.8   255  27.7  16.2  61.6    0.00     0
2017-12-15 11:32  28.6  32.1   251  27.9  16.1  61.0    0.00     0
2017-12-15 11:30  27.0  30.9   249  28.0  16.6  61.8    0.00     0
2017-12-15 11:28  26.6  30.5   260  28.2  17.0  62.5    0.00     0
2017-12-15 11:26  24.3  27.2   252  27.9  16.3  61.6    0.00     0
2017-12-15 11:24  27.2  29.2   252  27.7  15.5  59.8    0.00     0
2017-12-15 11:22  24.7  29.2   256  27.9  15.4  59.3    0.00     0
2017-12-15 11:20  27.6  29.0   257  27.7  14.1  56.4    0.00     0
2017-12-15 11:18  24.5  27.0   260  28.0  16.2  60.9    0.00     0
2017-12-15 11:16  27.0  29.0   265  27.5  14.0  56.5    0.00     0
2017-12-15 11:14  28.2  31.5   262  27.7  14.8  58.0    0.00     0
2017-12-15 11:12  24.7  29.0   265  27.5  15.5  60.4    0.00     0
2017-12-15 11:10  23.3  26.4   274  27.9  16.9  63.0    0.00     0
2017-12-15 11:08  23.1  24.7   262  27.5  16.4  62.8    0.00     0
2017-12-15 11:06  24.9  27.6   268  27.5  15.8  61.0    0.00     0
2017-12-15 11:04  27.0  28.6   270  27.5  16.0  61.6    0.00     0
2017-12-15 11:02  25.3  29.0   266  27.3  14.6  58.4    0.00     0
2017-12-15 11:00  27.8  30.1   267  27.5  14.5  57.8    0.00     0
2017-12-15 10:58  27.0  31.7   273  27.7  15.2  59.0    0.00     0
2017-12-15 10:56  27.4  31.1   270  27.9  15.6  59.8    0.00     0
2017-12-15 10:54  23.3  28.6   270  27.5  15.1  59.3    0.00     0
2017-12-15 10:52  24.7  29.4   277  27.3  13.7  56.1    0.00     0
2017-12-15 10:50  27.6  29.5   274  27.7  15.0  58.7    0.00     0
2017-12-15 10:48  27.4  29.4   268  27.9  15.8  60.2    0.00     0
2017-12-15 10:46  29.4  35.2   265  27.7  15.2  59.2    0.00     0
2017-12-15 10:44  28.2  30.9   267  27.5  15.1  59.2    0.00     0
2017-12-15 10:42  27.0  31.1   273  27.5  16.4  62.8    0.00     0
2017-12-15 10:40  26.8  30.9   279  27.1  15.0  59.8    0.00     0
2017-12-15 10:38  25.9  29.7   278  27.1  18.1  68.5    0.00     0
2017-12-15 10:36  26.8  29.5   275  27.5  20.0  73.0    0.00     0
2017-12-15 10:34  25.5  29.0   276  27.1  19.2  71.8    0.00     0
2017-12-15 10:32  28.0  31.7   281  27.3  19.1  71.0    0.00     0
2017-12-15 10:30  24.3  27.2   276  27.3  18.4  68.7    0.00     0
2017-12-15 10:28  21.8  25.5   276  27.5  19.1  70.5    0.00     0
2017-12-15 10:26  23.3  28.0   275  27.1  18.0  68.2    0.00     0
2017-12-15 10:24  22.6  24.7   277  27.5  18.5  68.6    0.00     0
2017-12-15 10:22  25.3  28.8   274  27.5  18.0  67.2    0.00     0